Star Flyer — 9HA2512 — position and weather

sailwx.info

Track history (hours):
 
Tides and Currents Weather Stations Pressure Air Temp Water Temp Dewpoint Dewpoint Depression Visibility Wind Speed Wind Dir Waves Ship Positions

Star Flyer

Last reported at 2017-Sep-24 03:59 UTC. Time now 2017-Sep-24 06:59 UTC.
Position N 44°20' E 013°48'.

Length 112 m; draft 5.9 m.

Type: Ship. MMSI: 248785000.

Date/timePositionNaut miles runAvg speedWind from/ knotsBaromVisibWave heightAir tempDewpointWater temp
2017-Sep-24 03:59N 44°20' E 013°48'12 9.0
2017-Sep-24 02:41N 44°30' E 013°39'2 9.2
2017-Sep-24 02:30N 44°31' E 013°37'6 9.4
2017-Sep-24 01:53N 44°36' E 013°33'5 9.3
2017-Sep-24 01:24N 44°40' E 013°29'3 9.0
2017-Sep-24 01:00N 44°42' E 013°27'5 9.1
2017-Sep-24 00:30N 44°46' E 013°23'5 9.3
2017-Sep-24 00:00N 44°50' E 013°20'5 9.3
2017-Sep-23 23:30N 44°54' E 013°16'5 9.0
2017-Sep-23 23:00N 44°57' E 013°12'4 8.9
2017-Sep-23 22:30N 45°00' E 013°07'4 8.9
2017-Sep-23 22:00N 45°03' E 013°02'4 8.9
2017-Sep-23 21:30N 45°06' E 012°58'4 8.8
2017-Sep-23 21:00N 45°09' E 012°53'4 8.8
2017-Sep-23 20:30N 45°12' E 012°48'4 8.9
2017-Sep-23 20:00N 45°15' E 012°43'  
2017-Sep-17 08:02N 44°21' E 013°47'8 7.1
2017-Sep-17 06:58N 44°27' E 013°41'3 5.4
2017-Sep-17 06:30N 44°29' E 013°39'3 5.2
2017-Sep-17 05:53N 44°32' E 013°37'2 3.9
2017-Sep-17 05:30N 44°33' E 013°35'3 5.0
2017-Sep-17 04:54N 44°36' E 013°33'3 7.3
2017-Sep-17 04:30N 44°38' E 013°31'4 7.6
2017-Sep-17 04:00N 44°41' E 013°28'4 7.6
2017-Sep-17 03:30N 44°45' E 013°25'4 7.6
2017-Sep-17 03:00N 44°48' E 013°22'3 5.2
2017-Sep-17 02:30N 44°50' E 013°20'1 1.6
2017-Sep-17 02:00N 44°51' E 013°20'1 1.8
2017-Sep-17 01:30N 44°51' E 013°19'3 6.0
2017-Sep-17 01:00N 44°54' E 013°17'3 6.9
2017-Sep-17 00:30N 44°56' E 013°13'4 7.1
2017-Sep-17 00:00N 44°59' E 013°10'4 7.1
2017-Sep-16 23:30N 45°01' E 013°06'3 7.1
2017-Sep-16 23:00N 45°03' E 013°02'4 7.3
2017-Sep-16 22:30N 45°06' E 012°58'4 7.3
2017-Sep-16 22:00N 45°08' E 012°54'5 7.5
2017-Sep-16 21:22N 45°11' E 012°49'3 7.5
2017-Sep-16 21:00N 45°13' E 012°46'4 7.4
2017-Sep-16 20:30N 45°15' E 012°42'4 7.3
2017-Sep-16 20:00N 45°18' E 012°38'4 7.5
2017-Sep-16 19:30N 45°20' E 012°34'4 7.7
2017-Sep-16 19:00N 45°23' E 012°30'4 8.2
2017-Sep-16 18:30N 45°25' E 012°25'2 4.9
2017-Sep-16 18:00N 45°25' E 012°22'2 4.4
2017-Sep-16 17:30N 45°26' E 012°19'0 0.0
2017-Sep-16 16:59N 45°26' E 012°19'0 0.0
2017-Sep-16 16:29N 45°26' E 012°19'0 0.0
2017-Sep-16 15:57N 45°26' E 012°19'0 0.0
2017-Sep-16 15:29N 45°26' E 012°19'0 0.0
2017-Sep-16 14:59N 45°26' E 012°19'0 0.0
2017-Sep-16 14:29N 45°26' E 012°19'0 0.0
2017-Sep-16 13:59N 45°26' E 012°19'0 0.0
2017-Sep-16 13:29N 45°26' E 012°19'0 0.0
2017-Sep-16 12:59N 45°26' E 012°19'0 0.0
2017-Sep-16 12:29N 45°26' E 012°19'0 0.0
2017-Sep-16 11:57N 45°26' E 012°19'0 0.0
2017-Sep-16 11:29N 45°26' E 012°19'0 0.0
2017-Sep-16 10:59N 45°26' E 012°19'0 0.0
2017-Sep-16 10:27N 45°26' E 012°19'0 0.0
2017-Sep-16 09:53N 45°26' E 012°19'0 0.0
2017-Sep-16 09:29N 45°26' E 012°19'0 0.0
2017-Sep-16 08:59N 45°26' E 012°19'0 0.0
2017-Sep-16 08:29N 45°26' E 012°19'0 0.0
2017-Sep-16 07:59N 45°26' E 012°19'0 0.0
2017-Sep-16 07:29N 45°26' E 012°19'0 0.0
2017-Sep-16 06:59N 45°26' E 012°19'0 0.0
2017-Sep-16 06:29N 45°26' E 012°19'0 0.0
2017-Sep-16 06:00N 45°26' E 012°19'0 0.0
2017-Sep-16 05:27N 45°26' E 012°19'0 0.0
2017-Sep-16 05:00N 45°26' E 012°19'1 1.8
2017-Sep-16 04:30N 45°26' E 012°20'3 5.5
2017-Sep-16 03:59N 45°26' E 012°24'5 9.3
2017-Sep-16 03:30N 45°24' E 012°30'5 9.1
2017-Sep-16 03:00N 45°22' E 012°36'4 8.4
2017-Sep-16 02:30N 45°24' E 012°41'4 7.9
2017-Sep-16 02:00N 45°25' E 012°47'4 8.0
2017-Sep-16 01:30N 45°27' E 012°52'2 3.7
2017-Sep-16 01:01N 45°27' E 012°54'1 1.2
2017-Sep-16 00:29N 45°27' E 012°55'1 1.5
2017-Sep-16 00:00N 45°28' E 012°56'1 2.4
2017-Sep-15 23:30N 45°28' E 012°58'2 3.9
2017-Sep-15 23:00N 45°29' E 013°00'2 4.2
2017-Sep-15 22:30N 45°30' E 013°03'2 4.1
2017-Sep-15 22:01N 45°31' E 013°06'2 4.5
2017-Sep-15 21:30N 45°32' E 013°09'2 4.2
2017-Sep-15 21:00N 45°32' E 013°11'2 3.5
2017-Sep-15 20:30N 45°33' E 013°14'2 3.6
2017-Sep-15 20:00N 45°34' E 013°16'2 3.5
2017-Sep-15 19:31N 45°34' E 013°18'4 8.3
2017-Sep-15 19:00N 45°36' E 013°24'5 9.4
2017-Sep-15 18:31N 45°37' E 013°30'2 4.7
2017-Sep-15 18:00N 45°36' E 013°33'3 5.9
2017-Sep-15 17:30N 45°33' E 013°33'2 3.5
2017-Sep-15 16:59N 45°31' E 013°33'0 0.0
2017-Sep-15 16:28N 45°31' E 013°33'0 0.0
2017-Sep-15 15:57N 45°31' E 013°33'0 0.0
2017-Sep-15 15:29N 45°31' E 013°33'0 0.0
2017-Sep-15 14:59N 45°31' E 013°33'0 0.0
2017-Sep-15 14:27N 45°31' E 013°33'0 0.0
2017-Sep-15 13:59N 45°31' E 013°33'0 0.0
2017-Sep-15 13:21N 45°31' E 013°33'0 0.0
2017-Sep-15 12:53N 45°31' E 013°33'0 0.0
2017-Sep-15 12:26N 45°31' E 013°33'0 0.0
2017-Sep-15 07:51N 45°31' E 013°33'0 0.0
2017-Sep-15 07:00N 45°31' E 013°33'1 2.3
2017-Sep-15 06:30N 45°31' E 013°32'3 5.5
2017-Sep-15 06:00N 45°31' E 013°28'2 4.8
2017-Sep-15 05:30N 45°29' E 013°25'2 4.4
2017-Sep-15 05:00N 45°28' E 013°23'2 4.8
2017-Sep-15 04:30N 45°26' E 013°20'2 3.8
2017-Sep-15 04:00N 45°24' E 013°20'2 4.9
2017-Sep-15 03:30N 45°23' E 013°22'2 4.8
2017-Sep-15 03:00N 45°21' E 013°25'2 4.6
2017-Sep-15 02:30N 45°20' E 013°27'0 1.0
2017-Sep-15 02:00N 45°19' E 013°28'0 0.7
2017-Sep-15 01:30N 45°19' E 013°27'1 1.0
2017-Sep-15 01:00N 45°18' E 013°27'1 1.3
2017-Sep-15 00:30N 45°18' E 013°28'1 1.4
2017-Sep-15 00:00N 45°17' E 013°28'1 1.7
2017-Sep-14 23:30N 45°16' E 013°28'1 1.9
2017-Sep-14 23:00N 45°16' E 013°29'1 1.9
2017-Sep-14 22:30N 45°15' E 013°29'2 4.7
2017-Sep-14 22:00N 45°13' E 013°26'2 4.9
2017-Sep-14 21:30N 45°12' E 013°23'1 2.9
2017-Sep-14 21:00N 45°12' E 013°21'1 2.1
2017-Sep-14 20:30N 45°12' E 013°20'2 3.6
2017-Sep-14 20:00N 45°10' E 013°21'2 3.8
2017-Sep-14 19:30N 45°08' E 013°23'2 3.5
2017-Sep-14 19:00N 45°07' E 013°24'1 1.6
2017-Sep-14 18:30N 45°07' E 013°25'2 3.6
2017-Sep-14 18:00N 45°05' E 013°27'2 4.0
2017-Sep-14 17:30N 45°05' E 013°30'2 4.2
2017-Sep-14 17:00N 45°05' E 013°33'2 4.0
2017-Sep-14 16:30N 45°05' E 013°36'2 2.8
2017-Sep-14 15:53N 45°05' E 013°38'0 0.0
2017-Sep-14 15:29N 45°05' E 013°38'0 0.0
2017-Sep-14 14:53N 45°05' E 013°38'0 0.0
2017-Sep-14 14:25N 45°05' E 013°38'0 0.0
2017-Sep-14 13:53N 45°05' E 013°38'0 0.0
2017-Sep-14 13:25N 45°05' E 013°38'0 0.0
2017-Sep-14 12:55N 45°05' E 013°38'0 0.0
2017-Sep-14 12:29N 45°05' E 013°38'0 0.0
2017-Sep-14 11:59N 45°05' E 013°38'0 0.0
2017-Sep-14 11:29N 45°05' E 013°38'0 0.0
2017-Sep-14 10:49N 45°05' E 013°38'0 0.0
2017-Sep-14 10:23N 45°05' E 013°38'0 0.0
2017-Sep-14 09:53N 45°05' E 013°38'0 0.0
2017-Sep-14 09:23N 45°05' E 013°38'0 0.5
2017-Sep-14 09:00N 45°05' E 013°38'4 7.7
2017-Sep-14 08:30N 45°05' E 013°33'5 9.0
2017-Sep-14 08:00N 45°04' E 013°26'4 9.0
2017-Sep-14 07:30N 45°03' E 013°20'4 7.6
2017-Sep-14 07:00N 45°02' E 013°15'1 2.5
2017-Sep-14 06:30N 45°02' E 013°13'1 2.9
2017-Sep-14 05:59N 45°02' E 013°11'1 3.1
2017-Sep-14 05:30N 45°02' E 013°09'1 2.9
2017-Sep-14 05:00N 45°02' E 013°07'1 2.0
2017-Sep-14 04:30N 45°02' E 013°05'1 1.4
2017-Sep-14 04:00N 45°02' E 013°05'  
Track history (hours):
 
Tides and Currents Weather Stations Pressure Air Temp Water Temp Dewpoint Dewpoint Depression Visibility Wind Speed Wind Dir Waves Ship Positions

Star Flyer

Last reported at 2017-Sep-24 03:59 UTC. Time now 2017-Sep-24 06:59 UTC.
Position N 44°20' E 013°48'.

Length 112 m; draft 5.9 m.

Type: Ship. MMSI: 248785000.

Date/timePositionNaut miles runAvg speedWind from/ knotsBaromVisibWave heightAir tempDewpointWater temp
2017-Sep-24 03:59N 44°20' E 013°48'12 9.0
2017-Sep-24 02:41N 44°30' E 013°39'2 9.2
2017-Sep-24 02:30N 44°31' E 013°37'6 9.4
2017-Sep-24 01:53N 44°36' E 013°33'5 9.3
2017-Sep-24 01:24N 44°40' E 013°29'3 9.0
2017-Sep-24 01:00N 44°42' E 013°27'5 9.1
2017-Sep-24 00:30N 44°46' E 013°23'5 9.3
2017-Sep-24 00:00N 44°50' E 013°20'5 9.3
2017-Sep-23 23:30N 44°54' E 013°16'5 9.0
2017-Sep-23 23:00N 44°57' E 013°12'4 8.9
2017-Sep-23 22:30N 45°00' E 013°07'4 8.9
2017-Sep-23 22:00N 45°03' E 013°02'4 8.9
2017-Sep-23 21:30N 45°06' E 012°58'4 8.8
2017-Sep-23 21:00N 45°09' E 012°53'4 8.8
2017-Sep-23 20:30N 45°12' E 012°48'4 8.9
2017-Sep-23 20:00N 45°15' E 012°43'  
2017-Sep-17 08:02N 44°21' E 013°47'8 7.1
2017-Sep-17 06:58N 44°27' E 013°41'3 5.4
2017-Sep-17 06:30N 44°29' E 013°39'3 5.2
2017-Sep-17 05:53N 44°32' E 013°37'2 3.9
2017-Sep-17 05:30N 44°33' E 013°35'3 5.0
2017-Sep-17 04:54N 44°36' E 013°33'3 7.3
2017-Sep-17 04:30N 44°38' E 013°31'4 7.6
2017-Sep-17 04:00N 44°41' E 013°28'4 7.6
2017-Sep-17 03:30N 44°45' E 013°25'4 7.6
2017-Sep-17 03:00N 44°48' E 013°22'3 5.2
2017-Sep-17 02:30N 44°50' E 013°20'1 1.6
2017-Sep-17 02:00N 44°51' E 013°20'1 1.8
2017-Sep-17 01:30N 44°51' E 013°19'3 6.0
2017-Sep-17 01:00N 44°54' E 013°17'3 6.9
2017-Sep-17 00:30N 44°56' E 013°13'4 7.1
2017-Sep-17 00:00N 44°59' E 013°10'4 7.1
2017-Sep-16 23:30N 45°01' E 013°06'3 7.1
2017-Sep-16 23:00N 45°03' E 013°02'4 7.3
2017-Sep-16 22:30N 45°06' E 012°58'4 7.3
2017-Sep-16 22:00N 45°08' E 012°54'5 7.5
2017-Sep-16 21:22N 45°11' E 012°49'3 7.5
2017-Sep-16 21:00N 45°13' E 012°46'4 7.4
2017-Sep-16 20:30N 45°15' E 012°42'4 7.3
2017-Sep-16 20:00N 45°18' E 012°38'4 7.5
2017-Sep-16 19:30N 45°20' E 012°34'4 7.7
2017-Sep-16 19:00N 45°23' E 012°30'4 8.2
2017-Sep-16 18:30N 45°25' E 012°25'2 4.9
2017-Sep-16 18:00N 45°25' E 012°22'2 4.4
2017-Sep-16 17:30N 45°26' E 012°19'0 0.0
2017-Sep-16 16:59N 45°26' E 012°19'0 0.0
2017-Sep-16 16:29N 45°26' E 012°19'0 0.0
2017-Sep-16 15:57N 45°26' E 012°19'0 0.0
2017-Sep-16 15:29N 45°26' E 012°19'0 0.0
2017-Sep-16 14:59N 45°26' E 012°19'0 0.0
2017-Sep-16 14:29N 45°26' E 012°19'0 0.0
2017-Sep-16 13:59N 45°26' E 012°19'0 0.0
2017-Sep-16 13:29N 45°26' E 012°19'0 0.0
2017-Sep-16 12:59N 45°26' E 012°19'0 0.0
2017-Sep-16 12:29N 45°26' E 012°19'0 0.0
2017-Sep-16 11:57N 45°26' E 012°19'0 0.0
2017-Sep-16 11:29N 45°26' E 012°19'0 0.0
2017-Sep-16 10:59N 45°26' E 012°19'0 0.0
2017-Sep-16 10:27N 45°26' E 012°19'0 0.0
2017-Sep-16 09:53N 45°26' E 012°19'0 0.0
2017-Sep-16 09:29N 45°26' E 012°19'0 0.0
2017-Sep-16 08:59N 45°26' E 012°19'0 0.0
2017-Sep-16 08:29N 45°26' E 012°19'0 0.0
2017-Sep-16 07:59N 45°26' E 012°19'0 0.0
2017-Sep-16 07:29N 45°26' E 012°19'0 0.0
2017-Sep-16 06:59N 45°26' E 012°19'0 0.0
2017-Sep-16 06:29N 45°26' E 012°19'0 0.0
2017-Sep-16 06:00N 45°26' E 012°19'0 0.0
2017-Sep-16 05:27N 45°26' E 012°19'0 0.0
2017-Sep-16 05:00N 45°26' E 012°19'1 1.8
2017-Sep-16 04:30N 45°26' E 012°20'3 5.5
2017-Sep-16 03:59N 45°26' E 012°24'5 9.3
2017-Sep-16 03:30N 45°24' E 012°30'5 9.1
2017-Sep-16 03:00N 45°22' E 012°36'4 8.4
2017-Sep-16 02:30N 45°24' E 012°41'4 7.9
2017-Sep-16 02:00N 45°25' E 012°47'4 8.0
2017-Sep-16 01:30N 45°27' E 012°52'2 3.7
2017-Sep-16 01:01N 45°27' E 012°54'1 1.2
2017-Sep-16 00:29N 45°27' E 012°55'1 1.5
2017-Sep-16 00:00N 45°28' E 012°56'1 2.4
2017-Sep-15 23:30N 45°28' E 012°58'2 3.9
2017-Sep-15 23:00N 45°29' E 013°00'2 4.2
2017-Sep-15 22:30N 45°30' E 013°03'2 4.1
2017-Sep-15 22:01N 45°31' E 013°06'2 4.5
2017-Sep-15 21:30N 45°32' E 013°09'2 4.2
2017-Sep-15 21:00N 45°32' E 013°11'2 3.5
2017-Sep-15 20:30N 45°33' E 013°14'2 3.6
2017-Sep-15 20:00N 45°34' E 013°16'2 3.5
2017-Sep-15 19:31N 45°34' E 013°18'4 8.3
2017-Sep-15 19:00N 45°36' E 013°24'5 9.4
2017-Sep-15 18:31N 45°37' E 013°30'2 4.7
2017-Sep-15 18:00N 45°36' E 013°33'3 5.9
2017-Sep-15 17:30N 45°33' E 013°33'2 3.5
2017-Sep-15 16:59N 45°31' E 013°33'0 0.0
2017-Sep-15 16:28N 45°31' E 013°33'0 0.0
2017-Sep-15 15:57N 45°31' E 013°33'0 0.0
2017-Sep-15 15:29N 45°31' E 013°33'0 0.0
2017-Sep-15 14:59N 45°31' E 013°33'0 0.0
2017-Sep-15 14:27N 45°31' E 013°33'0 0.0
2017-Sep-15 13:59N 45°31' E 013°33'0 0.0
2017-Sep-15 13:21N 45°31' E 013°33'0 0.0
2017-Sep-15 12:53N 45°31' E 013°33'0 0.0
2017-Sep-15 12:26N 45°31' E 013°33'0 0.0
2017-Sep-15 07:51N 45°31' E 013°33'0 0.0
2017-Sep-15 07:00N 45°31' E 013°33'1 2.3
2017-Sep-15 06:30N 45°31' E 013°32'3 5.5
2017-Sep-15 06:00N 45°31' E 013°28'2 4.8
2017-Sep-15 05:30N 45°29' E 013°25'2 4.4
2017-Sep-15 05:00N 45°28' E 013°23'2 4.8
2017-Sep-15 04:30N 45°26' E 013°20'2 3.8
2017-Sep-15 04:00N 45°24' E 013°20'2 4.9
2017-Sep-15 03:30N 45°23' E 013°22'2 4.8
2017-Sep-15 03:00N 45°21' E 013°25'2 4.6
2017-Sep-15 02:30N 45°20' E 013°27'0 1.0
2017-Sep-15 02:00N 45°19' E 013°28'0 0.7
2017-Sep-15 01:30N 45°19' E 013°27'1 1.0
2017-Sep-15 01:00N 45°18' E 013°27'1 1.3
2017-Sep-15 00:30N 45°18' E 013°28'1 1.4
2017-Sep-15 00:00N 45°17' E 013°28'1 1.7
2017-Sep-14 23:30N 45°16' E 013°28'1 1.9
2017-Sep-14 23:00N 45°16' E 013°29'1 1.9
2017-Sep-14 22:30N 45°15' E 013°29'2 4.7
2017-Sep-14 22:00N 45°13' E 013°26'2 4.9
2017-Sep-14 21:30N 45°12' E 013°23'1 2.9
2017-Sep-14 21:00N 45°12' E 013°21'1 2.1
2017-Sep-14 20:30N 45°12' E 013°20'2 3.6
2017-Sep-14 20:00N 45°10' E 013°21'2 3.8
2017-Sep-14 19:30N 45°08' E 013°23'2 3.5
2017-Sep-14 19:00N 45°07' E 013°24'1 1.6
2017-Sep-14 18:30N 45°07' E 013°25'2 3.6
2017-Sep-14 18:00N 45°05' E 013°27'2 4.0
2017-Sep-14 17:30N 45°05' E 013°30'2 4.2
2017-Sep-14 17:00N 45°05' E 013°33'2 4.0
2017-Sep-14 16:30N 45°05' E 013°36'2 2.8
2017-Sep-14 15:53N 45°05' E 013°38'0 0.0
2017-Sep-14 15:29N 45°05' E 013°38'0 0.0
2017-Sep-14 14:53N 45°05' E 013°38'0 0.0
2017-Sep-14 14:25N 45°05' E 013°38'0 0.0
2017-Sep-14 13:53N 45°05' E 013°38'0 0.0
2017-Sep-14 13:25N 45°05' E 013°38'0 0.0
2017-Sep-14 12:55N 45°05' E 013°38'0 0.0
2017-Sep-14 12:29N 45°05' E 013°38'0 0.0
2017-Sep-14 11:59N 45°05' E 013°38'0 0.0
2017-Sep-14 11:29N 45°05' E 013°38'0 0.0
2017-Sep-14 10:49N 45°05' E 013°38'0 0.0
2017-Sep-14 10:23N 45°05' E 013°38'0 0.0
2017-Sep-14 09:53N 45°05' E 013°38'0 0.0
2017-Sep-14 09:23N 45°05' E 013°38'0 0.5
2017-Sep-14 09:00N 45°05' E 013°38'4 7.7
2017-Sep-14 08:30N 45°05' E 013°33'5 9.0
2017-Sep-14 08:00N 45°04' E 013°26'4 9.0
2017-Sep-14 07:30N 45°03' E 013°20'4 7.6
2017-Sep-14 07:00N 45°02' E 013°15'1 2.5
2017-Sep-14 06:30N 45°02' E 013°13'1 2.9
2017-Sep-14 05:59N 45°02' E 013°11'1 3.1
2017-Sep-14 05:30N 45°02' E 013°09'1 2.9
2017-Sep-14 05:00N 45°02' E 013°07'1 2.0
2017-Sep-14 04:30N 45°02' E 013°05'1 1.4
2017-Sep-14 04:00N 45°02' E 013°05'  

Dump ship's entire track history